createdAt,value
2024-03-03T00:00:44.643Z,40.80
2024-03-03T00:03:11.375Z,41.83
2024-03-03T00:05:38.193Z,40.83
2024-03-03T00:08:05.258Z,40.40
2024-03-03T00:10:32.732Z,43.00
2024-03-03T00:12:59.509Z,42.90
2024-03-03T00:15:26.274Z,43.87
2024-03-03T00:17:53.159Z,44.77
2024-03-03T00:20:19.974Z,44.10
2024-03-03T00:22:46.728Z,47.20
2024-03-03T00:25:13.702Z,43.97
2024-03-03T00:27:40.860Z,43.20
2024-03-03T00:30:08.031Z,46.40
2024-03-03T00:32:34.724Z,44.43
2024-03-03T00:35:01.653Z,45.67
2024-03-03T00:37:28.401Z,41.37
2024-03-03T00:39:55.129Z,44.77
2024-03-03T00:42:21.844Z,44.07
2024-03-03T00:44:48.537Z,43.90
2024-03-03T00:47:15.312Z,43.27
2024-03-03T00:49:41.963Z,44.23
2024-03-03T00:52:08.955Z,45.07
2024-03-03T00:54:35.719Z,43.30
2024-03-03T00:57:04.980Z,47.00
2024-03-03T00:59:31.710Z,46.33
2024-03-03T01:01:58.441Z,41.83
2024-03-03T01:04:25.242Z,43.60
2024-03-03T01:06:52.151Z,42.20
2024-03-03T01:09:19.205Z,43.63
2024-03-03T01:11:47.085Z,47.07
2024-03-03T01:14:13.967Z,45.73
2024-03-03T01:16:40.684Z,43.90
2024-03-03T01:19:07.502Z,45.23
2024-03-03T01:21:34.250Z,45.80
2024-03-03T01:24:01.067Z,46.10
2024-03-03T01:26:27.773Z,45.50
2024-03-03T01:28:54.418Z,45.53
2024-03-03T01:31:21.126Z,53.80
2024-03-03T01:33:47.892Z,52.13
2024-03-03T01:36:14.734Z,56.33
2024-03-03T01:38:41.836Z,56.73
2024-03-03T01:41:08.990Z,53.13
2024-03-03T01:43:36.098Z,56.03
2024-03-03T01:46:03.217Z,53.97
2024-03-03T01:48:30.607Z,53.93
2024-03-03T01:50:58.739Z,51.23
2024-03-03T01:53:25.858Z,51.10
2024-03-03T01:55:52.670Z,52.50
2024-03-03T01:58:20.067Z,50.67
2024-03-03T02:00:49.989Z,51.07
2024-03-03T02:03:17.999Z,51.30
2024-03-03T02:05:44.770Z,52.77
2024-03-03T02:08:11.984Z,53.83
2024-03-03T02:10:39.544Z,50.53
2024-03-03T02:13:06.553Z,47.20
2024-03-03T02:15:33.353Z,48.87
2024-03-03T02:18:00.078Z,48.67
2024-03-03T02:20:28.900Z,49.03
2024-03-03T02:22:55.814Z,51.20
2024-03-03T02:25:23.006Z,52.50
2024-03-03T02:27:49.909Z,45.63
2024-03-03T02:30:16.891Z,50.00
2024-03-03T02:32:43.606Z,52.67
2024-03-03T02:35:10.596Z,49.83
2024-03-03T02:37:37.247Z,50.83
2024-03-03T02:40:04.645Z,52.03
2024-03-03T02:42:33.339Z,52.27
2024-03-03T02:45:01.431Z,49.60
2024-03-03T02:47:28.574Z,50.37
2024-03-03T02:49:55.372Z,48.80
2024-03-03T02:52:22.380Z,50.90
2024-03-03T02:54:49.470Z,50.10
2024-03-03T02:57:16.220Z,51.67
2024-03-03T02:59:42.930Z,50.63
2024-03-03T03:02:09.686Z,50.00
2024-03-03T03:04:36.353Z,51.30
2024-03-03T03:07:03.093Z,47.40
2024-03-03T03:09:29.794Z,48.50
2024-03-03T03:11:56.463Z,51.57
2024-03-03T03:14:25.247Z,48.50
2024-03-03T03:16:52.041Z,50.80
2024-03-03T03:19:18.924Z,49.10
2024-03-03T03:21:45.652Z,50.33
2024-03-03T03:24:12.387Z,52.10
2024-03-03T03:26:39.084Z,50.60
2024-03-03T03:29:05.840Z,47.10
2024-03-03T03:31:32.510Z,51.97
2024-03-03T03:33:59.342Z,52.07
2024-03-03T03:36:26.119Z,53.10
2024-03-03T03:38:53.041Z,52.33
2024-03-03T03:41:21.125Z,49.17
2024-03-03T03:43:48.273Z,45.63
2024-03-03T03:46:15.021Z,54.57
2024-03-03T03:48:41.914Z,49.57
2024-03-03T03:51:09.037Z,47.83
2024-03-03T03:53:35.795Z,49.33
2024-03-03T03:56:02.505Z,49.33
2024-03-03T03:58:29.180Z,46.17
2024-03-03T04:00:56.117Z,47.77
2024-03-03T04:03:22.845Z,46.73
2024-03-03T04:05:49.584Z,39.50
2024-03-03T04:08:16.234Z,43.27
2024-03-03T04:10:43.064Z,42.67
2024-03-03T04:13:09.865Z,44.87
2024-03-03T04:15:36.579Z,49.57
2024-03-03T04:18:03.376Z,46.60
2024-03-03T04:20:30.106Z,47.60
2024-03-03T04:22:56.816Z,44.07
2024-03-03T04:25:23.531Z,47.47
2024-03-03T04:27:50.239Z,48.13
2024-03-03T04:30:16.943Z,45.13
2024-03-03T04:32:43.632Z,45.10
2024-03-03T04:35:10.361Z,49.17
2024-03-03T04:37:37.010Z,46.73
2024-03-03T04:40:04.839Z,51.97
2024-03-03T04:42:31.873Z,51.50
2024-03-03T04:44:58.543Z,49.37
2024-03-03T04:47:25.658Z,50.07
2024-03-03T04:49:52.418Z,53.37
2024-03-03T04:52:19.325Z,46.67
2024-03-03T04:54:46.320Z,48.67
2024-03-03T04:57:13.055Z,47.07
2024-03-03T04:59:39.710Z,49.30
2024-03-03T05:02:06.471Z,45.73
2024-03-03T05:04:33.380Z,47.67
2024-03-03T05:07:00.756Z,45.00
2024-03-03T05:09:27.524Z,44.80
2024-03-03T05:11:54.207Z,47.93
2024-03-03T05:14:20.917Z,47.27
2024-03-03T05:16:47.696Z,46.57
2024-03-03T05:19:14.560Z,46.60
2024-03-03T05:21:41.348Z,46.17
2024-03-03T05:24:08.030Z,47.97
2024-03-03T05:26:34.779Z,45.63
2024-03-03T05:29:03.569Z,41.23
2024-03-03T05:31:40.430Z,46.20
2024-03-03T05:34:07.152Z,40.60
2024-03-03T05:36:35.008Z,43.63
2024-03-03T05:39:01.739Z,42.43
2024-03-03T05:41:28.498Z,40.17
2024-03-03T05:43:55.204Z,43.27
2024-03-03T05:46:22.032Z,38.40
2024-03-03T05:48:48.828Z,40.90
2024-03-03T05:51:17.126Z,43.47
2024-03-03T05:53:44.087Z,42.17
2024-03-03T05:56:15.152Z,42.33
2024-03-03T05:58:42.525Z,39.57
2024-03-03T06:01:09.341Z,40.77
2024-03-03T06:03:36.437Z,39.77
2024-03-03T06:06:03.837Z,43.70
2024-03-03T06:08:31.009Z,43.77
2024-03-03T06:10:57.764Z,41.80
2024-03-03T06:13:24.582Z,43.03
2024-03-03T06:15:51.352Z,44.03
2024-03-03T06:18:18.081Z,45.97
2024-03-03T06:20:44.764Z,43.13
2024-03-03T06:23:11.692Z,42.90
2024-03-03T06:25:38.352Z,42.40
2024-03-03T06:28:05.298Z,38.57
2024-03-03T06:30:31.977Z,43.97
2024-03-03T06:32:58.641Z,41.13
2024-03-03T06:35:25.359Z,42.70
2024-03-03T06:37:52.408Z,45.90
2024-03-03T06:40:19.324Z,43.37
2024-03-03T06:42:46.259Z,45.10
2024-03-03T06:45:12.995Z,46.77
2024-03-03T06:47:39.720Z,41.60
2024-03-03T06:50:07.015Z,42.70
2024-03-03T06:52:33.759Z,41.07
2024-03-03T06:55:00.995Z,38.67
2024-03-03T06:57:28.021Z,43.07
2024-03-03T06:59:54.982Z,38.27
2024-03-03T07:02:21.809Z,37.33
2024-03-03T07:04:48.532Z,37.33
2024-03-03T07:07:15.247Z,34.60
2024-03-03T07:09:42.069Z,38.70
2024-03-03T07:12:08.979Z,35.90
2024-03-03T07:14:37.392Z,34.73
2024-03-03T07:17:04.270Z,36.30
2024-03-03T07:19:31.043Z,29.50
2024-03-03T07:21:57.950Z,30.90
2024-03-03T07:24:25.223Z,30.60
2024-03-03T07:26:52.164Z,31.80
2024-03-03T07:29:18.967Z,29.90
2024-03-03T07:31:45.657Z,26.77
2024-03-03T07:34:12.405Z,27.47
2024-03-03T07:36:39.158Z,26.23
2024-03-03T07:39:07.064Z,26.57
2024-03-03T07:41:33.740Z,24.03
2024-03-03T07:44:00.538Z,23.83
2024-03-03T07:46:27.325Z,26.07
2024-03-03T07:48:54.210Z,24.60
2024-03-03T07:51:22.927Z,24.07
2024-03-03T07:53:49.710Z,23.83
2024-03-03T07:56:16.992Z,24.30
2024-03-03T07:58:44.075Z,23.30
2024-03-03T08:01:11.617Z,25.30
2024-03-03T08:03:38.376Z,23.60
2024-03-03T08:06:05.415Z,19.57
2024-03-03T08:08:32.242Z,20.53
2024-03-03T08:10:58.940Z,25.57
2024-03-03T08:13:26.096Z,23.73
2024-03-03T08:15:52.916Z,22.33
2024-03-03T08:18:19.760Z,21.17
2024-03-03T08:20:46.957Z,21.20
2024-03-03T08:23:15.647Z,20.00
2024-03-03T08:25:42.371Z,20.40
2024-03-03T08:28:09.907Z,22.43
2024-03-03T08:30:39.310Z,18.63
2024-03-03T08:33:06.217Z,18.00
2024-03-03T08:35:33.073Z,19.30
2024-03-03T08:37:59.894Z,19.23
2024-03-03T08:40:26.783Z,19.23
2024-03-03T08:42:55.504Z,19.03
2024-03-03T08:45:22.334Z,16.47
2024-03-03T08:47:49.219Z,17.10
2024-03-03T08:50:16.228Z,18.60
2024-03-03T08:52:43.157Z,17.30
2024-03-03T08:55:10.024Z,15.90
2024-03-03T08:57:36.818Z,17.37
2024-03-03T09:00:04.859Z,17.83
2024-03-03T09:02:31.787Z,13.03
2024-03-03T09:04:58.663Z,16.33
2024-03-03T09:07:25.480Z,15.63
2024-03-03T09:09:52.372Z,14.57
2024-03-03T09:12:19.272Z,16.63
2024-03-03T09:14:46.155Z,13.67
2024-03-03T09:17:12.982Z,14.03
2024-03-03T09:19:39.794Z,13.63
2024-03-03T09:22:06.701Z,12.90
2024-03-03T09:24:33.581Z,13.33
2024-03-03T09:27:00.519Z,12.33
2024-03-03T09:29:27.387Z,12.37
2024-03-03T09:31:54.458Z,11.87
2024-03-03T09:34:21.338Z,9.23
2024-03-03T09:36:48.253Z,9.87
2024-03-03T09:39:14.998Z,11.17
2024-03-03T09:41:43.187Z,10.67
2024-03-03T09:44:12.154Z,9.80
2024-03-03T09:46:41.436Z,10.47
2024-03-03T09:49:21.767Z,11.50
2024-03-03T09:51:49.924Z,11.63
2024-03-03T09:54:19.474Z,11.67
2024-03-03T09:56:47.629Z,8.13
2024-03-03T09:59:16.112Z,9.27
2024-03-03T10:01:54.405Z,7.73
2024-03-03T10:04:23.421Z,7.47
2024-03-03T10:06:56.371Z,7.03
2024-03-03T10:09:26.371Z,8.70
2024-03-03T10:11:56.283Z,8.60
2024-03-03T10:14:25.541Z,6.53
2024-03-03T10:16:52.346Z,7.53
2024-03-03T10:19:19.964Z,7.97
2024-03-03T10:21:48.838Z,7.30
2024-03-03T10:24:22.459Z,6.87
2024-03-03T10:26:50.518Z,6.80
2024-03-03T10:29:28.958Z,10.73
2024-03-03T10:31:56.695Z,10.83
2024-03-03T10:34:24.384Z,7.00
2024-03-03T10:37:05.282Z,8.57
2024-03-03T10:39:37.223Z,8.37
2024-03-03T10:42:11.539Z,7.00
2024-03-03T10:44:38.993Z,5.73
2024-03-03T10:47:09.317Z,6.47
2024-03-03T10:49:36.030Z,5.37
2024-03-03T10:52:02.924Z,5.83
2024-03-03T10:54:31.604Z,6.43
2024-03-03T10:57:00.428Z,5.63
2024-03-03T10:59:31.078Z,5.43
2024-03-03T11:02:01.067Z,5.03
2024-03-03T11:04:31.786Z,4.20
2024-03-03T11:07:06.216Z,4.17
2024-03-03T11:09:34.675Z,4.30
2024-03-03T11:12:06.429Z,3.77
2024-03-03T11:14:42.130Z,5.33
2024-03-03T11:17:21.323Z,3.97
2024-03-03T11:19:51.869Z,4.83
2024-03-03T11:22:23.264Z,4.20
2024-03-03T11:25:16.948Z,4.17
2024-03-03T11:27:47.284Z,3.73
2024-03-03T11:30:16.022Z,3.93
2024-03-03T11:32:44.604Z,3.17
2024-03-03T11:35:11.688Z,3.57
2024-03-03T11:37:38.697Z,3.53
2024-03-03T11:40:06.214Z,3.60
2024-03-03T11:42:33.450Z,3.80
2024-03-03T11:45:04.511Z,3.27
2024-03-03T11:47:35.813Z,2.40
2024-03-03T11:50:21.121Z,3.10
2024-03-03T11:52:49.165Z,2.60
2024-03-03T11:55:22.955Z,5.33
2024-03-03T11:58:03.003Z,4.23
2024-03-03T12:00:31.567Z,3.20
2024-03-03T12:03:00.318Z,4.57
2024-03-03T12:05:27.960Z,7.97
2024-03-03T12:07:56.406Z,6.47
2024-03-03T12:10:28.257Z,5.10
2024-03-03T12:12:59.955Z,5.33
2024-03-03T12:15:28.773Z,4.77
2024-03-03T12:18:00.316Z,2.60
2024-03-03T12:20:29.622Z,2.90
2024-03-03T12:22:57.278Z,3.00
2024-03-03T12:25:25.784Z,2.33
2024-03-03T12:27:55.141Z,1.60
2024-03-03T12:30:23.554Z,1.70
2024-03-03T12:32:51.845Z,3.37
2024-03-03T12:35:18.966Z,1.60
2024-03-03T12:37:45.843Z,2.17
2024-03-03T12:40:14.096Z,2.77
2024-03-03T12:42:41.131Z,2.50
2024-03-03T12:45:11.368Z,2.77
2024-03-03T12:47:40.771Z,1.00
2024-03-03T12:50:13.214Z,1.03
2024-03-03T12:52:42.033Z,1.20
2024-03-03T12:55:12.174Z,0.87
2024-03-03T12:57:40.484Z,1.13
2024-03-03T13:00:08.884Z,0.80
2024-03-03T13:02:35.757Z,0.93
2024-03-03T13:05:04.179Z,0.80
2024-03-03T13:07:31.018Z,1.03
2024-03-03T13:09:57.897Z,1.13
2024-03-03T13:12:26.330Z,0.70
2024-03-03T13:14:56.531Z,0.93
2024-03-03T13:17:24.437Z,0.57
2024-03-03T13:19:52.600Z,1.20
2024-03-03T13:22:20.465Z,1.30
2024-03-03T13:24:54.326Z,0.70
2024-03-03T13:27:22.417Z,0.60
2024-03-03T13:29:49.540Z,0.60
2024-03-03T13:32:16.450Z,0.50
2024-03-03T13:34:43.743Z,0.73
2024-03-03T13:37:11.043Z,0.80
2024-03-03T13:39:38.083Z,0.70
2024-03-03T13:42:10.521Z,0.70
2024-03-03T13:44:46.501Z,0.70
2024-03-03T13:47:15.208Z,0.90
2024-03-03T13:49:42.385Z,0.73
2024-03-03T13:52:13.146Z,0.60
2024-03-03T13:54:41.460Z,0.80
2024-03-03T13:57:08.292Z,0.70
2024-03-03T13:59:35.306Z,0.60
2024-03-03T14:02:02.121Z,2.10
2024-03-03T14:04:29.185Z,60.50
2024-03-03T14:06:58.259Z,7.07
2024-03-03T14:09:25.291Z,5.23
2024-03-03T14:11:52.313Z,0.73
2024-03-03T14:14:19.136Z,11.60
2024-03-03T14:16:46.047Z,9.57
2024-03-03T14:19:12.850Z,3.73
2024-03-03T14:21:39.757Z,7.47
2024-03-03T14:24:06.760Z,7.03
2024-03-03T14:26:33.642Z,1.13
2024-03-03T14:29:00.600Z,0.90
2024-03-03T14:31:28.199Z,0.70
2024-03-03T14:33:55.051Z,0.50
2024-03-03T14:36:24.297Z,0.53
2024-03-03T14:38:51.974Z,0.50
2024-03-03T14:41:18.829Z,2.10
2024-03-03T14:43:46.558Z,1.43
2024-03-03T14:46:14.463Z,0.50
2024-03-03T14:48:41.187Z,1.07
2024-03-03T14:51:07.934Z,0.20
2024-03-03T14:53:35.968Z,0.30
2024-03-03T14:56:06.092Z,0.50
2024-03-03T14:58:32.907Z,0.77
2024-03-03T15:00:59.943Z,1.00
2024-03-03T15:03:29.285Z,1.97
2024-03-03T15:05:58.049Z,0.87
2024-03-03T15:08:25.619Z,0.63
2024-03-03T15:10:52.681Z,0.83
2024-03-03T15:13:19.488Z,0.50
2024-03-03T15:15:46.493Z,0.30
2024-03-03T15:18:14.277Z,0.70
2024-03-03T15:20:41.286Z,1.07
2024-03-03T15:23:08.065Z,0.40
2024-03-03T15:25:34.932Z,0.53
2024-03-03T15:28:01.766Z,0.70
2024-03-03T15:30:29.424Z,2.30
2024-03-03T15:32:58.871Z,2.77
2024-03-03T15:35:26.456Z,0.77
2024-03-03T15:37:53.253Z,1.17
2024-03-03T15:40:21.117Z,1.77
2024-03-03T15:42:48.094Z,0.60
2024-03-03T15:45:14.963Z,0.50
2024-03-03T15:47:42.201Z,0.40
2024-03-03T15:50:09.512Z,0.70
2024-03-03T15:52:38.189Z,3.50
2024-03-03T15:55:08.474Z,0.63
2024-03-03T15:57:36.055Z,1.10
2024-03-03T16:00:02.843Z,1.00
2024-03-03T16:02:29.640Z,0.60
2024-03-03T16:04:56.384Z,0.80
2024-03-03T16:07:23.992Z,1.07
2024-03-03T16:09:53.775Z,0.40
2024-03-03T16:12:20.590Z,0.43
2024-03-03T16:14:47.413Z,2.07
2024-03-03T16:17:14.779Z,0.83
2024-03-03T16:19:43.255Z,1.87
2024-03-03T16:22:11.308Z,1.10
2024-03-03T16:24:38.148Z,0.90
2024-03-03T16:27:06.438Z,0.87
2024-03-03T16:29:33.920Z,1.07
2024-03-03T16:32:00.990Z,1.30
2024-03-03T16:34:27.913Z,1.70
2024-03-03T16:36:54.765Z,1.00
2024-03-03T16:39:21.538Z,0.80
2024-03-03T16:41:48.365Z,2.17
2024-03-03T16:44:15.089Z,0.70
2024-03-03T16:46:42.363Z,1.23
2024-03-03T16:49:09.201Z,1.33
2024-03-03T16:51:36.056Z,1.97
2024-03-03T16:54:03.920Z,2.23
2024-03-03T16:56:30.743Z,1.60
2024-03-03T16:58:57.635Z,0.97
2024-03-03T17:01:25.480Z,2.50
2024-03-03T17:03:52.438Z,2.30
2024-03-03T17:06:20.571Z,1.00
2024-03-03T17:08:47.621Z,1.83
2024-03-03T17:11:14.879Z,1.70
2024-03-03T17:13:41.661Z,2.73
2024-03-03T17:16:08.737Z,4.90
2024-03-03T17:18:35.634Z,4.50
2024-03-03T17:21:05.838Z,3.93
2024-03-03T17:23:32.836Z,1.67
2024-03-03T17:26:00.142Z,4.00
2024-03-03T17:28:26.953Z,1.60
2024-03-03T17:30:54.649Z,2.90
2024-03-03T17:33:21.521Z,1.57
2024-03-03T17:35:49.037Z,1.90
2024-03-03T17:38:15.862Z,2.37
2024-03-03T17:40:42.725Z,1.50
2024-03-03T17:43:09.490Z,2.17
2024-03-03T17:45:36.323Z,4.17
2024-03-03T17:48:03.361Z,1.80
2024-03-03T17:50:30.155Z,1.80
2024-03-03T17:52:56.966Z,1.90
2024-03-03T17:55:23.811Z,1.83
2024-03-03T17:57:50.673Z,3.57
2024-03-03T18:00:18.206Z,3.67
2024-03-03T18:02:46.034Z,4.47
2024-03-03T18:05:13.085Z,3.73
2024-03-03T18:07:40.490Z,2.43
2024-03-03T18:10:08.476Z,3.40
2024-03-03T18:12:35.286Z,3.33
2024-03-03T18:15:02.111Z,3.53
2024-03-03T18:17:29.823Z,2.73
2024-03-03T18:19:56.628Z,4.57
2024-03-03T18:22:25.567Z,3.27
2024-03-03T18:24:52.475Z,3.60
2024-03-03T18:27:19.260Z,3.30
2024-03-03T18:29:46.348Z,3.93
2024-03-03T18:32:13.177Z,3.83
2024-03-03T18:34:40.071Z,3.47
2024-03-03T18:37:06.866Z,5.10
2024-03-03T18:39:33.623Z,5.07
2024-03-03T18:42:00.407Z,3.73
2024-03-03T18:44:27.100Z,5.23
2024-03-03T18:46:53.962Z,4.27
2024-03-03T18:49:20.760Z,5.00
2024-03-03T18:51:48.664Z,6.90
2024-03-03T18:54:15.485Z,5.37
2024-03-03T18:56:42.502Z,5.73
2024-03-03T18:59:10.429Z,4.43
2024-03-03T19:01:37.452Z,6.47
2024-03-03T19:04:04.464Z,6.33
2024-03-03T19:06:31.443Z,6.67
2024-03-03T19:08:58.360Z,6.10
2024-03-03T19:11:25.237Z,6.23
2024-03-03T19:13:52.203Z,7.27
2024-03-03T19:16:19.109Z,4.90
2024-03-03T19:18:46.828Z,7.37
2024-03-03T19:21:15.806Z,5.93
2024-03-03T19:23:42.677Z,5.33
2024-03-03T19:26:09.655Z,6.37
2024-03-03T19:28:36.527Z,6.83
2024-03-03T19:31:04.768Z,5.90
2024-03-03T19:33:31.683Z,5.53
2024-03-03T19:35:58.466Z,5.80
2024-03-03T19:38:25.308Z,5.07
2024-03-03T19:40:53.666Z,5.30
2024-03-03T19:43:20.725Z,5.67
2024-03-03T19:45:47.773Z,7.43
2024-03-03T19:48:14.613Z,6.33
2024-03-03T19:50:43.469Z,5.93
2024-03-03T19:53:11.092Z,6.87
2024-03-03T19:55:37.918Z,7.23
2024-03-03T19:58:04.831Z,5.33
2024-03-03T20:00:31.654Z,5.07
2024-03-03T20:02:58.504Z,4.83
2024-03-03T20:05:25.252Z,6.83
2024-03-03T20:07:52.062Z,5.17
2024-03-03T20:10:20.385Z,5.13
2024-03-03T20:12:47.177Z,6.53
2024-03-03T20:15:14.291Z,5.80
2024-03-03T20:17:41.196Z,4.50
2024-03-03T20:20:10.931Z,5.43
2024-03-03T20:22:38.207Z,5.10
2024-03-03T20:25:05.793Z,5.87
2024-03-03T20:27:32.999Z,4.23
2024-03-03T20:29:59.896Z,5.00
2024-03-03T20:32:27.615Z,4.63
2024-03-03T20:34:57.680Z,4.40
2024-03-03T20:37:25.260Z,6.33
2024-03-03T20:39:52.876Z,4.53
2024-03-03T20:42:20.462Z,7.00
2024-03-03T20:44:48.191Z,6.27
2024-03-03T20:47:15.163Z,8.07
2024-03-03T20:49:42.110Z,9.70
2024-03-03T20:52:09.054Z,7.40
2024-03-03T20:54:36.367Z,8.33
2024-03-03T20:57:09.261Z,9.27
2024-03-03T20:59:36.826Z,9.97
2024-03-03T21:02:05.454Z,8.97
2024-03-03T21:04:34.790Z,9.30
2024-03-03T21:07:03.748Z,9.43
2024-03-03T21:09:30.696Z,9.60
2024-03-03T21:11:57.644Z,11.13
2024-03-03T21:14:26.403Z,10.00
2024-03-03T21:16:53.433Z,11.73
2024-03-03T21:19:20.325Z,12.23
2024-03-03T21:21:47.126Z,13.07
2024-03-03T21:24:13.942Z,10.03
2024-03-03T21:26:47.407Z,10.37
2024-03-03T21:29:14.337Z,10.60
2024-03-03T21:31:41.305Z,12.30
2024-03-03T21:34:08.187Z,11.63
2024-03-03T21:36:35.886Z,10.17
2024-03-03T21:39:03.080Z,10.47
2024-03-03T21:41:29.882Z,7.87
2024-03-03T21:43:56.607Z,5.47
2024-03-03T21:46:23.553Z,8.83
2024-03-03T21:48:50.353Z,8.93
2024-03-03T21:51:17.160Z,7.30
2024-03-03T21:53:44.041Z,5.97
2024-03-03T21:56:10.818Z,6.33
2024-03-03T21:58:41.289Z,7.00
2024-03-03T22:01:08.773Z,6.30
2024-03-03T22:03:35.589Z,6.63
2024-03-03T22:06:02.354Z,7.73
2024-03-03T22:08:29.111Z,7.53
2024-03-03T22:10:56.035Z,8.63
2024-03-03T22:13:22.908Z,8.00
2024-03-03T22:15:49.767Z,8.40
2024-03-03T22:18:18.702Z,7.60
2024-03-03T22:20:45.660Z,8.20
2024-03-03T22:23:14.527Z,7.80
2024-03-03T22:25:41.884Z,5.93
2024-03-03T22:28:08.845Z,5.60
2024-03-03T22:30:35.569Z,6.93
2024-03-03T22:33:02.438Z,7.63
2024-03-03T22:35:29.229Z,7.27
2024-03-03T22:37:55.951Z,9.03
2024-03-03T22:40:22.864Z,7.30
2024-03-03T22:42:49.585Z,8.13
2024-03-03T22:45:16.343Z,9.00
2024-03-03T22:47:43.130Z,7.00
2024-03-03T22:50:10.215Z,6.93
2024-03-03T22:52:36.988Z,9.60
2024-03-03T22:55:04.043Z,6.80
2024-03-03T22:57:30.759Z,8.60
2024-03-03T22:59:57.483Z,7.37
2024-03-03T23:02:24.244Z,6.87
2024-03-03T23:04:53.006Z,11.47
2024-03-03T23:07:21.317Z,10.03
2024-03-03T23:09:48.018Z,10.50
2024-03-03T23:12:14.761Z,7.77
2024-03-03T23:14:44.492Z,7.93
2024-03-03T23:17:11.163Z,11.07
2024-03-03T23:19:38.149Z,13.13
2024-03-03T23:22:05.102Z,8.83
2024-03-03T23:24:31.891Z,8.40
2024-03-03T23:26:58.646Z,10.93
2024-03-03T23:29:25.416Z,10.60
2024-03-03T23:31:52.252Z,7.70
2024-03-03T23:34:18.968Z,10.10
2024-03-03T23:36:46.519Z,6.67
2024-03-03T23:39:13.276Z,10.53
2024-03-03T23:41:40.835Z,7.33
2024-03-03T23:44:07.554Z,8.90
2024-03-03T23:46:34.326Z,8.57
2024-03-03T23:49:01.285Z,7.03
2024-03-03T23:51:27.977Z,5.50
2024-03-03T23:53:54.651Z,7.50
2024-03-03T23:56:21.339Z,9.17
2024-03-03T23:58:48.258Z,6.33
